Latest Weather Observations for Cleve Airport

IDS60801

Issued at 9:31 pm CST Wednesday 5 August 2015 (issued every 30 minutes, with the page automatically refreshed every 10 minutes)

About weather observations | Map of weather stations | Latest weather observations for SA | Other Formats
Station Details ID: 018116 Name: CLEVE AERODROME Lat: -33.71 Lon: 136.50 Height: 175.0 m
Data from the previous 72 hours. | See also: Recent months at Cleve Airport
Date/Time
CST
Temp
°C
App
Temp
°C
Dew
Point
Rel
Hum
%
Delta-T
°C
Wind Press
QNH
hPa
Press
MSL
hPa
Rain
since 9 am
mm
Dir
 
Spd
km/h
Gust
km/h
Spd
kts
Gust
kts
05/09:30pm 8.8 6.0 7.1 89 0.8 SW 11 13 6 7 1025.7 - 0.2
05/09:00pm 8.9 6.2 7.4 90 0.7 WSW 11 13 6 7 1025.8 1025.9 0.2
05/08:30pm 8.7 6.4 7.3 91 0.7 WSW 9 11 5 6 1025.6 - 0.2
05/08:00pm 9.1 6.0 7.2 88 0.9 WSW 13 15 7 8 1025.4 - 0.2
05/07:30pm 9.1 6.5 7.7 91 0.7 WSW 11 15 6 8 1025.4 - 0.2
05/07:00pm 9.5 7.0 8.1 91 0.7 WSW 11 15 6 8 1025.2 - 0.2
05/06:30pm 9.7 6.3 7.8 88 0.9 W 15 20 8 11 1024.9 - 0.2
05/06:00pm 10.2 6.2 6.5 78 1.7 SW 17 24 9 13 1024.7 1024.8 0.2
05/05:30pm 10.4 6.9 7.3 81 1.5 SSW 15 19 8 10 1024.5 - 0.2
05/05:00pm 10.7 6.5 7.6 81 1.5 S 19 24 10 13 1024.1 - 0.2
05/04:30pm 11.1 7.2 8.5 84 1.3 S 19 24 10 13 1023.9 - 0.2
05/04:00pm 11.7 7.8 7.2 74 2.2 SW 17 22 9 12 1023.6 - 0.2
05/03:30pm 11.6 7.2 7.3 75 2.1 SSW 20 28 11 15 1023.5 - 0.2
05/03:00pm 11.9 7.8 8.7 81 1.6 S 20 28 11 15 1023.5 1023.6 0.2
05/02:30pm 11.9 7.0 8.4 79 1.7 SSW 24 32 13 17 1023.3 - 0.2
05/02:00pm 11.7 6.6 7.8 77 1.9 SSW 24 33 13 18 1023.4 - 0.2
05/01:30pm 11.6 7.5 8.8 83 1.4 SW 20 26 11 14 1023.5 - 0.2
05/01:00pm 10.2 6.3 8.5 89 0.8 SW 19 32 10 17 1023.9 - 0.2
05/12:30pm 11.4 7.6 9.7 89 0.9 SSW 20 32 11 17 1024.0 - 0.0
05/12:00pm 10.3 5.4 9.8 97 0.3 SSW 26 33 14 18 1024.4 1024.4 0.0
05/11:30am 11.5 6.1 8.2 80 1.6 SW 26 33 14 18 1024.7 - 0.0
05/11:00am 11.3 7.0 9.4 88 1.0 WSW 22 30 12 16 1024.9 - 0.0
05/10:30am 10.8 6.1 9.4 91 0.7 WSW 24 33 13 18 1024.9 - 0.0
05/10:00am 10.4 6.1 9.5 94 0.5 SW 22 30 12 16 1024.8 - 0.0
05/09:30am 10.6 6.4 9.7 94 0.5 W 22 30 12 16 1024.6 - 0.0
05/09:00am 9.4 5.4 8.9 97 0.2 W 20 30 11 16 1024.5 1024.5 1.2
05/08:30am 8.5 4.5 8.4 99 0.0 WNW 19 26 10 14 1024.4 - 1.2
05/08:00am 8.2 3.6 8.1 99 0.0 W 22 28 12 15 1024.3 - 1.2
05/07:30am 7.7 3.9 7.6 99 0.0 W 17 22 9 12 1024.0 - 1.2
05/07:00am 7.6 4.2 7.6 100 0.0 W 15 20 8 11 1023.8 - 1.2
05/06:30am 7.7 3.5 7.6 99 0.0 W 19 26 10 14 1023.7 - 1.2
05/06:00am 7.8 3.4 6.7 93 0.5 W 19 28 10 15 1023.6 1023.7 1.0
05/05:30am 7.6 4.0 6.7 94 0.4 W 15 20 8 11 1023.5 - 1.0
05/05:00am 8.2 4.3 7.1 93 0.5 W 17 22 9 12 1023.4 - 1.0
05/04:30am 8.5 4.7 7.7 95 0.4 W 17 24 9 13 1023.4 - 1.0
05/04:00am 8.6 4.7 8.6 100 0.0 WNW 19 24 10 13 1023.3 - 1.0
05/03:30am 8.7 5.6 8.7 100 0.0 WNW 15 19 8 10 1023.4 - 1.0
05/03:00am 8.7 4.8 8.7 100 0.0 W 19 24 10 13 1023.8 1023.9 1.0
05/02:30am 8.9 5.1 8.9 100 0.0 W 19 22 10 12 1024.3 - 1.0
05/02:00am 8.9 4.9 8.9 100 0.0 W 20 26 11 14 1024.5 - 1.0
05/01:30am 8.9 4.5 8.9 100 0.0 W 22 30 12 16 1024.6 - 1.0
05/01:00am 8.8 4.7 8.8 100 0.0 W 20 32 11 17 1024.7 - 0.8
05/12:30am 9.5 4.6 8.6 94 0.4 WNW 24 32 13 17 1024.7 - 0.0
05/12:00am 9.6 4.8 8.7 94 0.4 WNW 24 37 13 20 1024.9 1025.0 0.0
 
Date/Time
CST
Temp
°C
App
Temp
°C
Dew
Point
Rel
Hum
%
Delta-T
°C
Wind Press
QNH
hPa
Press
MSL
hPa
Rain
since 9 am
mm
Dir
 
Spd
km/h
Gust
km/h
Spd
kts
Gust
kts
04/11:30pm 9.1 4.2 8.5 96 0.3 WNW 24 32 13 17 1025.1 - 0.0
04/11:00pm 8.8 4.2 8.0 95 0.4 WNW 22 39 12 21 1025.2 - 0.0
04/10:30pm 8.9 3.9 8.1 95 0.4 WNW 24 33 13 18 1025.4 - 0.0
04/10:00pm 9.0 4.7 7.9 93 0.5 WNW 20 28 11 15 1025.6 - 0.0
04/09:30pm 9.2 5.0 8.1 93 0.5 WNW 20 28 11 15 1025.9 - 0.0
04/09:00pm 9.3 4.9 7.3 87 0.9 WNW 20 30 11 16 1025.9 1026.0 0.0
04/08:30pm 8.7 4.3 6.5 86 1.0 WNW 19 26 10 14 1026.0 - 0.0
04/08:00pm 8.9 4.6 6.9 87 0.9 WNW 19 24 10 13 1026.2 - 0.0
04/07:30pm 9.1 4.8 7.2 88 0.9 WNW 19 24 10 13 1026.1 - 0.0
04/07:00pm 9.4 5.1 7.2 86 1.0 WNW 19 24 10 13 1026.2 - 0.0
04/06:30pm 9.5 6.0 7.3 86 1.1 WNW 15 22 8 12 1026.0 - 0.0
04/06:00pm 9.9 5.8 7.7 86 1.1 W 19 26 10 14 1026.0 1026.1 0.0
04/05:30pm 9.9 6.0 7.2 83 1.3 W 17 22 9 12 1026.0 - 0.0
04/05:00pm 10.8 6.6 7.3 79 1.7 W 19 28 10 15 1025.9 - 0.0
04/04:30pm 10.8 5.3 7.5 80 1.6 WSW 26 35 14 19 1026.2 - 0.0
04/04:00pm 11.8 8.2 6.7 71 2.4 WSW 15 20 8 11 1026.1 - 0.0
04/03:30pm 11.7 7.1 5.8 67 2.8 WSW 19 26 10 14 1026.3 - 0.0
04/03:00pm 12.0 7.5 6.3 68 2.7 WSW 19 26 10 14 1026.4 1026.5 0.0
04/02:30pm 11.9 7.1 5.8 66 2.9 WSW 20 26 11 14 1026.6 - 0.0
04/02:00pm 12.0 6.9 6.1 67 2.8 WSW 22 32 12 17 1026.8 - 0.0
04/01:30pm 11.6 5.9 6.9 73 2.3 WSW 26 35 14 19 1027.1 - 0.0
04/01:00pm 11.8 6.1 6.5 70 2.5 WSW 26 39 14 21 1027.3 - 0.0
04/12:30pm 11.2 6.7 6.9 75 2.1 WSW 20 32 11 17 1027.8 - 0.0
04/12:00pm 11.3 6.3 6.6 73 2.2 W 22 30 12 16 1028.2 1028.3 0.0
04/11:30am 11.3 7.7 8.2 81 1.5 W 17 22 9 12 1028.8 - 0.0
04/11:00am 10.3 6.2 7.9 85 1.2 W 19 24 10 13 1029.1 - 0.0
04/10:30am 10.6 7.1 8.9 89 0.8 W 17 24 9 13 1029.2 - 0.0
04/10:00am 9.7 6.0 8.1 90 0.8 W 17 20 9 11 1029.1 - 0.0
04/09:30am 8.8 6.1 8.8 100 0.0 WNW 13 19 7 10 1028.9 - 0.0
04/09:00am 8.3 5.8 8.3 100 0.0 WNW 11 15 6 8 1028.9 1029.0 1.4
04/08:30am 7.1 4.0 7.1 100 0.0 WNW 13 17 7 9 1029.0 - 1.4
04/08:00am 6.4 3.1 6.4 100 0.0 WNW 13 17 7 9 1028.9 - 1.4
04/07:30am 6.3 3.0 6.3 100 0.0 W 13 17 7 9 1028.7 - 1.4
04/07:00am 6.3 2.6 6.3 100 0.0 W 15 19 8 10 1028.5 - 1.4
04/06:30am 6.6 3.0 6.6 100 0.0 W 15 20 8 11 1028.1 - 1.4
04/06:00am 6.2 3.2 6.2 100 0.0 WNW 11 15 6 8 1027.9 1028.0 1.4
04/05:30am 6.0 3.4 6.0 100 0.0 WNW 9 13 5 7 1027.8 - 1.4
04/05:00am 6.1 3.1 6.1 100 0.0 WNW 11 13 6 7 1027.9 - 1.4
04/04:30am 6.1 3.1 6.1 100 0.0 WNW 11 15 6 8 1027.9 - 1.4
04/04:00am 6.3 3.4 6.3 100 0.0 WNW 11 15 6 8 1027.8 - 1.4
04/03:30am 6.6 3.7 6.6 100 0.0 WNW 11 17 6 9 1028.0 - 1.4
04/03:00am 6.8 3.6 6.8 100 0.0 W 13 17 7 9 1028.2 1028.3 1.4
04/02:30am 6.4 3.1 6.4 100 0.0 W 13 17 7 9 1028.3 - 1.4
04/02:00am 6.5 3.2 6.5 100 0.0 W 13 17 7 9 1028.5 - 1.2
04/01:30am 6.0 2.6 6.0 100 0.0 WNW 13 17 7 9 1028.4 - 1.2
04/01:00am 6.0 2.6 6.0 100 0.0 WNW 13 17 7 9 1028.5 - 1.2
04/12:30am 6.2 2.9 6.2 100 0.0 WNW 13 17 7 9 1028.6 - 1.2
04/12:00am 6.5 3.6 6.5 100 0.0 W 11 15 6 8 1028.8 1028.9 1.2
 
Date/Time
CST
Temp
°C
App
Temp
°C
Dew
Point
Rel
Hum
%
Delta-T
°C
Wind Press
QNH
hPa
Press
MSL
hPa
Rain
since 9 am
mm
Dir
 
Spd
km/h
Gust
km/h
Spd
kts
Gust
kts
03/11:30pm 6.9 3.7 6.9 100 0.0 W 13 17 7 9 1028.9 - 1.2
03/11:00pm 7.0 4.2 7.0 100 0.0 WNW 11 15 6 8 1028.8 - 1.2
03/10:30pm 6.8 3.5 6.5 98 0.1 WNW 13 15 7 8 1029.0 - 1.2
03/10:00pm 7.0 3.8 6.9 99 0.0 W 13 17 7 9 1029.0 - 1.2
03/09:30pm 7.0 4.2 7.0 100 0.0 W 11 15 6 8 1028.9 - 1.2
03/09:00pm 6.7 4.6 6.6 99 0.0 WNW 7 11 4 6 1028.8 1028.9 1.2
03/08:30pm 7.7 5.4 7.6 99 0.0 W 9 11 5 6 1028.8 - 1.2
03/08:00pm 8.2 6.5 8.2 100 0.0 W 7 9 4 5 1028.7 - 1.2
03/07:30pm 8.5 6.1 8.5 100 0.0 SSW 11 15 6 8 1028.7 - 1.2
03/07:00pm 9.0 4.5 8.4 96 0.3 SSW 22 32 12 17 1028.4 - 1.2
03/06:30pm 9.4 7.4 8.5 94 0.4 SSW 9 13 5 7 1028.2 - 1.2
03/06:00pm 9.5 9.2 8.7 95 0.4 CALM 0 0 0 0 1027.9 1028.0 1.2
03/05:30pm 9.6 7.9 8.5 93 0.5 SSW 7 9 4 5 1027.7 - 1.2
03/05:00pm 9.5 7.7 8.1 91 0.7 S 7 9 4 5 1027.5 - 1.0
03/04:30pm 9.9 5.3 8.2 89 0.8 S 22 28 12 15 1027.5 - 1.0
03/04:00pm 11.2 8.0 8.4 83 1.4 SSW 15 20 8 11 1027.4 - 1.0
03/03:30pm 11.0 6.2 8.9 87 1.1 SSW 24 35 13 19 1027.3 - 1.0
03/03:00pm 12.3 8.4 8.8 79 1.8 SSW 19 26 10 14 1026.8 1026.9 1.0
03/02:30pm 11.3 6.7 9.6 89 0.9 SSW 24 33 13 18 1026.7 - 1.0
03/02:00pm 11.1 7.6 8.8 86 1.1 SSW 17 22 9 12 1026.7 - 1.0
03/01:30pm 12.2 8.9 9.4 83 1.4 S 17 28 9 15 1026.8 - 0.6
03/01:00pm 11.7 8.0 9.6 87 1.1 SSW 19 24 10 13 1027.0 - 0.6
03/12:30pm 10.5 5.5 9.6 94 0.5 SSW 26 33 14 18 1027.5 - 0.6
03/12:00pm 10.5 5.8 9.1 91 0.7 SW 24 37 13 20 1027.5 1027.6 0.2
03/11:30am 11.6 8.3 9.5 87 1.1 SSW 17 24 9 13 1027.8 - 0.0
03/11:00am 11.3 7.8 10.8 97 0.3 WSW 20 26 11 14 1027.9 - 0.0
03/10:30am 10.6 6.9 9.5 93 0.6 WSW 19 26 10 14 1028.0 - 0.0
03/10:00am 10.6 6.8 9.2 91 0.7 WSW 19 28 10 15 1027.7 - 0.0
03/09:30am 10.4 7.1 9.6 95 0.4 WSW 17 22 9 12 1027.5 - 0.0
03/09:00am 9.6 6.7 9.6 100 0.0 W 15 20 8 11 1027.3 1027.4 0.2
03/08:30am 9.3 6.3 9.3 100 0.0 W 15 19 8 10 1027.1 - 0.2
03/08:00am 8.8 5.3 8.8 100 0.0 W 17 20 9 11 1026.7 - 0.2
03/07:30am 8.4 5.2 8.4 100 0.0 WNW 15 20 8 11 1026.5 - 0.2
03/07:00am 8.9 5.4 8.8 99 0.0 W 17 30 9 16 1026.2 - 0.2
03/06:30am 8.5 5.6 8.2 98 0.1 W 13 20 7 11 1026.0 - 0.2
03/06:00am 8.4 5.4 7.8 96 0.3 W 13 17 7 9 1025.8 1025.9 0.2
03/05:30am 9.2 4.2 8.0 92 0.6 WSW 24 33 13 18 1025.6 - 0.2
03/05:00am 9.1 6.2 8.2 94 0.4 W 13 17 7 9 1025.4 - 0.2
03/04:30am 9.0 5.0 8.4 96 0.3 W 19 26 10 14 1025.4 - 0.2
03/04:00am 9.1 5.0 8.5 96 0.3 W 20 28 11 15 1025.1 - 0.2
03/03:30am 9.1 4.7 8.8 98 0.1 W 22 32 12 17 1025.2 - 0.2
03/03:00am 9.0 4.6 9.0 100 0.0 W 22 30 12 16 1025.0 1025.1 0.2
03/02:30am 8.6 4.5 8.6 100 0.0 WNW 20 28 11 15 1025.0 - 0.2
03/02:00am 8.7 4.8 8.7 100 0.0 WNW 19 24 10 13 1025.1 - 0.2
03/01:30am 8.6 5.1 8.6 100 0.0 WNW 17 24 9 13 1025.2 - 0.2
03/01:00am 9.0 5.2 9.0 100 0.0 W 19 28 10 15 1025.2 - 0.2
03/12:30am 9.0 5.6 9.0 100 0.0 W 17 24 9 13 1025.5 - 0.2
03/12:00am 9.1 5.1 9.0 99 0.0 W 20 32 11 17 1025.4 1025.5 0.0
 
Date/Time
CST
Temp
°C
App
Temp
°C
Dew
Point
Rel
Hum
%
Delta-T
°C
Wind Press
QNH
hPa
Press
MSL
hPa
Rain
since 9 am
mm
Dir
 
Spd
km/h
Gust
km/h
Spd
kts
Gust
kts
02/11:30pm 9.2 4.7 8.7 97 0.2 W 22 33 12 18 1025.4 - 0.0
02/11:00pm 9.0 5.1 8.5 97 0.2 WNW 19 24 10 13 1025.3 - 0.0
02/10:30pm 9.1 5.6 8.8 98 0.1 WNW 17 22 9 12 1025.3 - 0.0
02/10:00pm 9.2 5.3 8.7 97 0.2 W 19 26 10 14 1025.2 - 0.0

Other Formats:

Comma delimited format used in spreadsheet applications
http://www.bom.gov.au/fwo/IDS60801/IDS60801.94662.axf

JavaScript Object Notation format (JSON) in row-major order
http://www.bom.gov.au/fwo/IDS60801/IDS60801.94662.json